Time;durP1;ratioP1;P1;durP2;ratioP2;P2;SDS_P1;SDS_P2;PMS_P1;PMS_P2;Temp;Humidity;BMP_temperature;BMP_pressure;BME280_temperature;BME280_humidity;BME280_pressure;Samples;Min_cycle;Max_cycle;Signal;HPM_P1;HPM_P2
2022/11/07 00:01:11;;;;;;;;;;;;;;;26.41;23.58;98193.59;6245490;22;19939;-84
2022/11/07 00:03:37;;;;;;;;;;;;;;;24.18;26.56;98198.31;6243331;22;19922;-83
2022/11/07 00:06:03;;;;;;;;;;;;;;;23.84;26.91;98195.75;6244727;23;19939;-84
2022/11/07 00:08:32;;;;;;;;;;;;;;;24.60;26.42;98196.59;6244393;23;19957;-84
2022/11/07 00:10:59;;;;;;;;;;;;;;;22.96;28.37;98190.88;6244509;23;19951;-84
2022/11/07 00:13:26;;;;;;;;;;;;;;;22.89;28.31;98183.38;6245370;22;19912;-83
2022/11/07 00:15:53;;;;;;;;;;;;;;;24.23;26.50;98195.00;6245793;22;20222;-84
2022/11/07 00:18:19;;;;;;;;;;;;;;;23.89;26.96;98191.66;6245131;22;19911;-84
2022/11/07 00:20:45;;;;;;;;;;;;;;;23.01;28.15;98187.59;6245492;22;20356;-84
2022/11/07 00:23:11;;;;;;;;;;;;;;;24.07;26.47;98185.72;6244788;23;19912;-84
2022/11/07 00:25:37;;;;;;;;;;;;;;;25.03;24.96;98176.78;6243729;23;19991;-84
2022/11/07 00:28:03;;;;;;;;;;;;;;;25.85;23.63;98185.53;6245371;23;19965;-84
2022/11/07 00:30:29;;;;;;;;;;;;;;;25.76;23.90;98188.19;6245740;22;19912;-84
2022/11/07 00:32:55;;;;;;;;;;;;;;;26.40;22.92;98181.56;6245693;23;19919;-84
2022/11/07 00:35:21;;;;;;;;;;;;;;;26.33;22.91;98184.56;6245453;23;19964;-84
2022/11/07 00:37:47;;;;;;;;;;;;;;;26.19;23.08;98181.38;6244449;23;20253;-84
2022/11/07 00:40:13;;;;;;;;;;;;;;;26.10;22.87;98179.22;6244976;23;19911;-84
2022/11/07 00:42:39;;;;;;;;;;;;;;;25.89;23.30;98160.09;6244339;23;20360;-84
2022/11/07 00:45:05;;;;;;;;;;;;;;;26.00;23.26;98171.84;6243600;23;19990;-84
2022/11/07 00:47:31;;;;;;;;;;;;;;;25.70;23.25;98163.84;6245619;22;19965;-84
2022/11/07 00:49:57;;;;;;;;;;;;;;;24.35;25.28;98151.44;6244958;23;19916;-84
2022/11/07 00:52:23;;;;;;;;;;;;;;;25.45;23.66;98160.91;6243313;23;19915;-84
2022/11/07 00:54:49;;;;;;;;;;;;;;;24.74;24.51;98162.59;6243522;23;20233;-84
2022/11/07 00:57:15;;;;;;;;;;;;;;;24.33;25.30;98162.31;6244611;23;19917;-84
2022/11/07 00:59:41;;;;;;;;;;;;;;;24.31;25.17;98167.59;6245504;23;19962;-84
2022/11/07 01:02:07;;;;;;;;;;;;;;;22.52;27.72;98172.31;6244600;23;20329;-84
2022/11/07 01:07:17;;;;;;;;;;;;;;;22.46;27.85;98169.19;6244615;23;19957;-84
2022/11/07 01:09:43;;;;;;;;;;;;;;;22.09;28.36;98157.28;6244773;23;19912;-83
2022/11/07 01:12:09;;;;;;;;;;;;;;;22.99;27.04;98162.81;6246033;23;19913;-83
2022/11/07 01:14:35;;;;;;;;;;;;;;;22.96;26.94;98158.06;6247223;23;19916;-83
2022/11/07 01:17:01;;;;;;;;;;;;;;;22.63;27.41;98162.56;6248146;23;20333;-84
2022/11/07 01:19:27;;;;;;;;;;;;;;;23.24;26.43;98157.56;6247172;23;19970;-83
2022/11/07 01:21:53;;;;;;;;;;;;;;;23.62;26.12;98155.31;6247384;23;19918;-83
2022/11/07 01:24:19;;;;;;;;;;;;;;;23.58;26.06;98156.59;6247775;23;19923;-83
2022/11/07 01:26:46;;;;;;;;;;;;;;;24.64;24.51;98146.81;6246406;22;19915;-83
2022/11/07 01:29:13;;;;;;;;;;;;;;;24.66;24.54;98147.16;6246672;22;19912;-83
2022/11/07 01:31:39;;;;;;;;;;;;;;;24.82;24.12;98146.41;6247855;22;19919;-83
2022/11/07 01:34:05;;;;;;;;;;;;;;;24.74;24.18;98152.16;6245950;23;19915;-83
2022/11/07 01:36:31;;;;;;;;;;;;;;;24.80;24.23;98140.44;6247637;23;19918;-83
2022/11/07 01:38:58;;;;;;;;;;;;;;;24.36;24.68;98128.59;6247101;23;19912;-83
2022/11/07 01:41:25;;;;;;;;;;;;;;;24.10;25.27;98135.16;6244840;22;19911;-83
2022/11/07 01:43:54;;;;;;;;;;;;;;;24.35;25.08;98135.41;6244496;22;19920;-84
2022/11/07 01:46:23;;;;;;;;;;;;;;;25.15;23.90;98136.75;6247572;23;19939;-83
2022/11/07 01:48:53;;;;;;;;;;;;;;;24.57;24.71;98125.31;6246222;22;19986;-83
2022/11/07 01:51:21;;;;;;;;;;;;;;;25.63;23.28;98124.66;6247727;22;19964;-83
2022/11/07 01:53:48;;;;;;;;;;;;;;;25.42;23.87;98112.75;6247689;22;19922;-83
2022/11/07 01:56:16;;;;;;;;;;;;;;;26.13;22.78;98121.25;6246337;22;20005;-83
2022/11/07 01:58:43;;;;;;;;;;;;;;;26.13;22.81;98115.63;6245733;22;19994;-83
2022/11/07 02:01:09;;;;;;;;;;;;;;;26.51;22.54;98111.63;6246228;23;19911;-83
2022/11/07 02:03:36;;;;;;;;;;;;;;;25.86;23.20;98113.16;6245961;23;19991;-83
2022/11/07 02:06:08;;;;;;;;;;;;;;;26.47;22.53;98113.75;6246557;22;20371;-83
2022/11/07 02:08:35;;;;;;;;;;;;;;;26.92;22.23;98109.94;6243131;23;19915;-83
2022/11/07 02:11:02;;;;;;;;;;;;;;;26.98;21.91;98106.09;6245857;22;19915;-83
2022/11/07 02:13:29;;;;;;;;;;;;;;;26.96;22.00;98110.59;6246219;22;19916;-83
2022/11/07 02:15:57;;;;;;;;;;;;;;;27.44;21.63;98106.59;6246301;22;19912;-83
2022/11/07 02:18:25;;;;;;;;;;;;;;;27.26;21.80;98107.97;6245487;22;19943;-83
2022/11/07 02:20:54;;;;;;;;;;;;;;;27.14;22.10;98100.31;6246508;22;19938;-83
2022/11/07 02:23:26;;;;;;;;;;;;;;;26.49;22.65;98110.50;6246005;22;19974;-83
2022/11/07 02:25:53;;;;;;;;;;;;;;;26.70;22.38;98101.38;6245707;22;19923;-83
2022/11/07 02:28:20;;;;;;;;;;;;;;;26.77;22.37;98092.72;6244763;22;20325;-83
2022/11/07 02:30:46;;;;;;;;;;;;;;;26.96;22.22;98093.69;6246163;22;19912;-83
2022/11/07 02:33:19;;;;;;;;;;;;;;;27.21;21.72;98088.03;6245529;23;19954;-83
2022/11/07 02:35:49;;;;;;;;;;;;;;;27.57;21.22;98094.00;6245698;22;19918;-83
2022/11/07 02:38:15;;;;;;;;;;;;;;;27.80;21.28;98099.22;6246116;22;20344;-83
2022/11/07 02:40:43;;;;;;;;;;;;;;;27.80;21.27;98102.03;6245819;23;19912;-83
2022/11/07 02:43:10;;;;;;;;;;;;;;;27.94;21.01;98093.03;6245873;22;19915;-83
2022/11/07 02:45:38;;;;;;;;;;;;;;;27.79;21.26;98088.41;6246367;22;20242;-83
2022/11/07 02:48:04;;;;;;;;;;;;;;;27.51;21.52;98086.59;6245195;22;19939;-83
2022/11/07 02:50:30;;;;;;;;;;;;;;;27.33;21.90;98075.91;6245534;22;19922;-83
2022/11/07 02:52:56;;;;;;;;;;;;;;;27.55;21.42;98079.59;6246152;23;19912;-83
2022/11/07 02:55:22;;;;;;;;;;;;;;;27.42;21.74;98083.72;6246243;23;20006;-83
2022/11/07 02:57:48;;;;;;;;;;;;;;;27.59;21.35;98076.63;6242220;23;20289;-83
2022/11/07 03:00:14;;;;;;;;;;;;;;;27.79;21.08;98083.53;6246550;23;19915;-83
2022/11/07 03:02:45;;;;;;;;;;;;;;;27.81;20.97;98078.22;6245634;22;19915;-83
2022/11/07 03:05:12;;;;;;;;;;;;;;;27.70;21.24;98089.09;6246115;22;20005;-83
2022/11/07 03:07:38;;;;;;;;;;;;;;;27.99;20.91;98074.75;6245090;22;20286;-83
2022/11/07 03:10:04;;;;;;;;;;;;;;;27.67;21.09;98078.75;6246117;23;19977;-84
2022/11/07 03:12:30;;;;;;;;;;;;;;;27.50;21.48;98074.53;6245116;22;19919;-83
2022/11/07 03:14:56;;;;;;;;;;;;;;;26.64;22.74;98084.25;6246417;23;19965;-84
2022/11/07 03:17:22;;;;;;;;;;;;;;;25.99;23.48;98083.03;6244991;23;19918;-84
2022/11/07 03:19:48;;;;;;;;;;;;;;;26.57;22.94;98078.84;6246437;23;19918;-84
2022/11/07 03:22:14;;;;;;;;;;;;;;;26.81;22.48;98075.72;6246179;23;20376;-84
2022/11/07 03:24:40;;;;;;;;;;;;;;;27.02;22.27;98081.44;6245844;23;20030;-84
2022/11/07 03:27:06;;;;;;;;;;;;;;;27.38;21.73;98075.34;6244874;23;19939;-84
2022/11/07 03:29:32;;;;;;;;;;;;;;;27.34;21.35;98072.66;6246966;23;19912;-84
2022/11/07 03:31:58;;;;;;;;;;;;;;;27.27;21.26;98077.75;6246339;23;19935;-84
2022/11/07 03:34:24;;;;;;;;;;;;;;;27.42;21.36;98076.03;6246059;23;20218;-84
2022/11/07 03:36:50;;;;;;;;;;;;;;;27.62;20.82;98082.16;6245414;23;19915;-84
2022/11/07 03:39:16;;;;;;;;;;;;;;;27.53;20.95;98089.75;6245052;23;19919;-84
2022/11/07 03:41:42;;;;;;;;;;;;;;;27.27;21.07;98086.19;6244455;23;19911;-84
2022/11/07 03:44:08;;;;;;;;;;;;;;;26.85;21.47;98082.81;6246097;23;19995;-83
2022/11/07 03:46:34;;;;;;;;;;;;;;;26.83;21.53;98079.66;6244368;23;20330;-83
2022/11/07 03:49:00;;;;;;;;;;;;;;;26.55;21.54;98086.16;6246451;23;19911;-83
2022/11/07 03:51:25;;;;;;;;;;;;;;;26.02;22.86;98082.16;6245755;23;20426;-83
2022/11/07 03:53:51;;;;;;;;;;;;;;;25.40;23.72;98070.22;6245540;23;19920;-83
2022/11/07 03:56:17;;;;;;;;;;;;;;;26.14;22.85;98078.59;6244126;23;20317;-83
2022/11/07 03:58:43;;;;;;;;;;;;;;;26.18;22.74;98073.66;6245748;23;19912;-83
2022/11/07 04:01:10;;;;;;;;;;;;;;;25.94;23.17;98075.94;6244117;23;19951;-83
2022/11/07 04:03:36;;;;;;;;;;;;;;;25.75;23.55;98078.91;6244960;22;19934;-83
2022/11/07 04:06:02;;;;;;;;;;;;;;;25.90;23.63;98078.09;6244918;23;20321;-83
2022/11/07 04:08:28;;;;;;;;;;;;;;;26.04;23.48;98074.81;6242693;23;20001;-83
2022/11/07 04:10:54;;;;;;;;;;;;;;;26.44;22.89;98071.66;6243133;23;19912;-83
2022/11/07 04:18:57;;;;;;;;;;;;;;;27.30;22.06;98072.00;6241042;22;20011;-83
2022/11/07 04:21:23;;;;;;;;;;;;;;;27.23;21.83;98055.31;6244831;22;19981;-83
2022/11/07 04:23:49;;;;;;;;;;;;;;;27.15;21.98;98067.28;6243967;23;19920;-83
2022/11/07 04:29:00;;;;;;;;;;;;;;;26.74;22.38;98065.44;6244066;23;19963;-83
2022/11/07 04:31:26;;;;;;;;;;;;;;;27.14;22.24;98060.84;6243320;23;19907;-83
2022/11/07 04:33:52;;;;;;;;;;;;;;;27.23;21.84;98055.31;6246379;23;19939;-83
2022/11/07 04:36:18;;;;;;;;;;;;;;;27.52;21.96;98055.09;6243943;23;20264;-83
2022/11/07 04:38:44;;;;;;;;;;;;;;;27.25;22.07;98061.28;6245250;22;19911;-83
2022/11/07 04:41:21;;;;;;;;;;;;;;;27.13;22.20;98058.50;6244319;23;19969;-83
2022/11/07 04:43:47;;;;;;;;;;;;;;;27.55;21.72;98062.66;6244221;22;19916;-83
2022/11/07 04:46:13;;;;;;;;;;;;;;;27.35;22.02;98051.66;6242881;23;19949;-83
2022/11/07 04:48:39;;;;;;;;;;;;;;;27.14;22.19;98055.22;6247825;22;19911;-83
2022/11/07 04:51:05;;;;;;;;;;;;;;;27.31;21.78;98055.84;6246692;23;20338;-83
2022/11/07 04:53:31;;;;;;;;;;;;;;;27.60;21.18;98053.63;6246899;23;19943;-83
2022/11/07 04:55:57;;;;;;;;;;;;;;;27.27;21.27;98058.00;6244554;23;19912;-83
2022/11/07 04:58:23;;;;;;;;;;;;;;;27.15;21.83;98059.63;6247230;23;19935;-83
2022/11/07 05:00:49;;;;;;;;;;;;;;;27.31;22.28;98062.28;6244944;23;19907;-83
2022/11/07 05:03:15;;;;;;;;;;;;;;;27.22;23.00;98059.38;6247283;23;19911;-83
2022/11/07 05:05:41;;;;;;;;;;;;;;;27.30;22.89;98057.09;6246459;23;19934;-83
2022/11/07 05:08:07;;;;;;;;;;;;;;;27.13;23.47;98053.66;6246053;23;19919;-83
2022/11/07 05:10:33;;;;;;;;;;;;;;;27.57;22.87;98057.34;6247467;22;19919;-83
2022/11/07 05:12:59;;;;;;;;;;;;;;;27.53;23.03;98056.69;6247273;22;19943;-83
2022/11/07 05:15:25;;;;;;;;;;;;;;;26.93;23.10;98052.38;6245073;23;19969;-83
2022/11/07 05:17:51;;;;;;;;;;;;;;;27.12;22.98;98046.44;6244736;23;20389;-83
2022/11/07 05:20:36;;;;;;;;;;;;;;;25.65;25.55;98055.50;6245902;23;19943;-83
2022/11/07 05:23:13;;;;;;;;;;;;;;;26.63;24.41;98048.88;6245640;22;19915;-83
2022/11/07 05:25:44;;;;;;;;;;;;;;;26.82;23.69;98043.47;6244832;22;19927;-83
2022/11/07 05:28:10;;;;;;;;;;;;;;;26.32;24.24;98053.53;6245367;22;19986;-83
2022/11/07 05:30:38;;;;;;;;;;;;;;;26.85;23.75;98053.81;6247496;22;20258;-83
2022/11/07 05:33:04;;;;;;;;;;;;;;;25.61;25.75;98057.63;6245147;22;19956;-82
2022/11/07 05:35:30;;;;;;;;;;;;;;;26.13;25.31;98059.34;6247405;23;19994;-85
2022/11/07 05:37:56;;;;;;;;;;;;;;;27.02;23.78;98053.25;6246964;23;19912;-82
2022/11/07 05:40:22;;;;;;;;;;;;;;;27.78;23.31;98052.94;6245436;23;19938;-82
2022/11/07 05:42:47;;;;;;;;;;;;;;;25.95;24.96;98060.63;6244253;23;20325;-83
2022/11/07 05:45:13;;;;;;;;;;;;;;;26.56;24.55;98060.38;6246224;23;19911;-82
2022/11/07 05:47:39;;;;;;;;;;;;;;;27.21;23.71;98059.84;6246460;23;19911;-82
2022/11/07 05:50:06;;;;;;;;;;;;;;;27.43;23.31;98060.69;6246721;23;19912;-82
2022/11/07 05:52:32;;;;;;;;;;;;;;;25.72;25.76;98083.41;6245685;22;20257;-82
2022/11/07 05:54:58;;;;;;;;;;;;;;;26.27;24.70;98070.97;6245285;23;19920;-82
2022/11/07 05:57:24;;;;;;;;;;;;;;;26.71;24.34;98074.78;6246290;23;19912;-82
2022/11/07 05:59:50;;;;;;;;;;;;;;;27.33;23.76;98073.88;6247087;23;19916;-83
2022/11/07 06:02:16;;;;;;;;;;;;;;;27.99;22.96;98086.84;6247321;23;19912;-82
2022/11/07 06:04:41;;;;;;;;;;;;;;;28.46;22.57;98091.50;6247506;23;19915;-83
2022/11/07 06:07:07;;;;;;;;;;;;;;;28.92;21.64;98093.25;6247291;23;19911;-82
2022/11/07 06:09:33;;;;;;;;;;;;;;;29.23;21.05;98093.19;6247478;23;19911;-82
2022/11/07 06:12:02;;;;;;;;;;;;;;;29.33;20.79;98100.44;6245637;23;19982;-83
2022/11/07 06:14:28;;;;;;;;;;;;;;;29.48;20.44;98097.81;6247883;22;19946;-82
2022/11/07 06:16:54;;;;;;;;;;;;;;;29.58;20.63;98110.69;6247192;23;19915;-82
2022/11/07 06:19:20;;;;;;;;;;;;;;;29.74;20.72;98110.38;6247867;23;19943;-82
2022/11/07 06:21:46;;;;;;;;;;;;;;;29.71;19.99;98117.75;6247982;23;20337;-83
2022/11/07 06:24:12;;;;;;;;;;;;;;;29.54;20.00;98115.72;6247081;23;19948;-82
2022/11/07 06:26:38;;;;;;;;;;;;;;;29.52;20.02;98123.88;6245996;23;19923;-83
2022/11/07 06:29:04;;;;;;;;;;;;;;;29.52;20.12;98129.56;6246001;23;19911;-82
2022/11/07 06:31:30;;;;;;;;;;;;;;;29.52;19.95;98138.03;6246964;23;20436;-83
2022/11/07 06:33:56;;;;;;;;;;;;;;;29.52;19.97;98144.50;6247313;22;19911;-83
2022/11/07 06:36:22;;;;;;;;;;;;;;;29.49;19.78;98134.09;6246371;23;20280;-83
2022/11/07 06:38:51;;;;;;;;;;;;;;;29.46;19.63;98145.56;6247655;23;19911;-82
2022/11/07 06:41:17;;;;;;;;;;;;;;;29.48;20.06;98146.66;6246967;22;19982;-83
2022/11/07 06:43:43;;;;;;;;;;;;;;;28.92;20.08;98149.00;6246932;23;19943;-83
2022/11/07 06:46:10;;;;;;;;;;;;;;;28.70;21.08;98149.88;6246910;23;20330;-83
2022/11/07 06:48:36;;;;;;;;;;;;;;;28.71;20.65;98151.44;6247501;22;19914;-83
2022/11/07 06:51:03;;;;;;;;;;;;;;;28.73;20.75;98150.97;6246700;22;19918;-83
2022/11/07 06:53:29;;;;;;;;;;;;;;;28.85;20.62;98158.56;6247731;22;19994;-83
2022/11/07 06:55:58;;;;;;;;;;;;;;;29.08;20.55;98154.41;6246830;22;20348;-83
2022/11/07 06:58:24;;;;;;;;;;;;;;;29.27;20.47;98158.88;6245664;22;19957;-83
2022/11/07 07:00:50;;;;;;;;;;;;;;;29.31;20.24;98151.81;6246568;23;19907;-83
2022/11/07 07:03:16;;;;;;;;;;;;;;;29.25;20.14;98156.53;6247043;23;20249;-83
2022/11/07 07:05:42;;;;;;;;;;;;;;;29.19;20.54;98149.13;6245397;23;19986;-83
2022/11/07 07:08:09;;;;;;;;;;;;;;;29.15;20.28;98154.13;6246203;23;19912;-83
2022/11/07 07:10:41;;;;;;;;;;;;;;;28.43;21.30;98149.69;6246894;22;19918;-83
2022/11/07 07:13:07;;;;;;;;;;;;;;;28.43;21.28;98149.69;6246838;22;19955;-83
2022/11/07 07:15:33;;;;;;;;;;;;;;;28.64;21.07;98171.50;6246631;23;19911;-83
2022/11/07 07:18:00;;;;;;;;;;;;;;;28.51;21.20;98158.69;6246474;23;19963;-83
2022/11/07 07:20:26;;;;;;;;;;;;;;;28.46;21.56;98159.28;6246969;22;19912;-83
2022/11/07 07:22:52;;;;;;;;;;;;;;;28.15;22.07;98158.44;6246851;22;19912;-83
2022/11/07 07:25:18;;;;;;;;;;;;;;;28.50;21.67;98163.53;6246779;23;20270;-83
2022/11/07 07:27:44;;;;;;;;;;;;;;;28.84;21.56;98159.81;6245139;23;19912;-83
2022/11/07 07:30:10;;;;;;;;;;;;;;;29.10;21.25;98158.31;6246450;23;19943;-83
2022/11/07 07:32:36;;;;;;;;;;;;;;;29.39;21.09;98167.25;6246797;22;19965;-83
2022/11/07 07:35:02;;;;;;;;;;;;;;;29.65;20.82;98162.09;6246102;23;19919;-83
2022/11/07 07:37:28;;;;;;;;;;;;;;;29.82;20.60;98163.41;6245986;22;19915;-83
2022/11/07 07:39:54;;;;;;;;;;;;;;;29.97;20.62;98158.69;6246888;22;19915;-83
2022/11/07 07:42:20;;;;;;;;;;;;;;;29.52;20.99;98160.69;6246675;23;19934;-83
2022/11/07 07:44:46;;;;;;;;;;;;;;;29.41;20.92;98158.28;6246073;23;19997;-83
2022/11/07 07:47:12;;;;;;;;;;;;;;;29.44;21.37;98146.03;6245113;23;19919;-83
2022/11/07 07:49:38;;;;;;;;;;;;;;;29.37;21.06;98152.78;6246399;22;19988;-83
2022/11/07 07:52:04;;;;;;;;;;;;;;;29.19;21.32;98146.31;6246143;23;19912;-83
2022/11/07 07:54:30;;;;;;;;;;;;;;;28.67;21.74;98138.69;6246548;23;20002;-83
2022/11/07 07:56:56;;;;;;;;;;;;;;;28.57;22.18;98137.03;6246529;23;19943;-83
2022/11/07 07:59:22;;;;;;;;;;;;;;;27.25;23.48;98128.16;6245962;23;19911;-83
2022/11/07 08:01:48;;;;;;;;;;;;;;;27.89;23.31;98138.03;6246628;23;19965;-83
2022/11/07 08:04:14;;;;;;;;;;;;;;;28.60;22.52;98133.34;6246518;23;19964;-83
2022/11/07 08:06:40;;;;;;;;;;;;;;;29.05;22.18;98136.34;6245513;23;19922;-83
2022/11/07 08:09:06;;;;;;;;;;;;;;;29.17;21.81;98135.41;6246397;23;19958;-83
2022/11/07 08:11:32;;;;;;;;;;;;;;;29.60;21.92;98142.91;6246362;23;19941;-83
2022/11/07 08:13:58;;;;;;;;;;;;;;;29.99;21.63;98144.06;6246473;23;19908;-83
2022/11/07 08:16:24;;;;;;;;;;;;;;;30.24;21.67;98143.72;6246267;23;20245;-83
2022/11/07 08:18:50;;;;;;;;;;;;;;;30.38;21.53;98147.97;6246431;23;19931;-83
2022/11/07 08:21:16;;;;;;;;;;;;;;;30.37;20.90;98154.88;6244924;23;19949;-83
2022/11/07 08:23:42;;;;;;;;;;;;;;;30.11;21.25;98145.91;6245264;23;20237;-83
2022/11/07 08:26:08;;;;;;;;;;;;;;;29.95;21.36;98143.41;6246243;23;19916;-83
2022/11/07 08:28:35;;;;;;;;;;;;;;;29.79;21.71;98144.53;6246098;22;20288;-83
2022/11/07 08:31:06;;;;;;;;;;;;;;;29.75;21.79;98148.75;6246261;22;19915;-83
2022/11/07 08:33:32;;;;;;;;;;;;;;;30.11;21.33;98150.81;6246201;22;19912;-83
2022/11/07 08:36:00;;;;;;;;;;;;;;;30.15;21.32;98151.44;6246220;22;19915;-83
2022/11/07 08:38:26;;;;;;;;;;;;;;;28.91;22.92;98153.88;6245620;22;19919;-83
2022/11/07 08:40:52;;;;;;;;;;;;;;;29.20;23.05;98148.66;6245954;22;19911;-83
2022/11/07 08:43:18;;;;;;;;;;;;;;;29.45;22.61;98146.84;6244354;23;19991;-83
2022/11/07 08:45:45;;;;;;;;;;;;;;;29.95;22.37;98149.88;6246218;22;19911;-83
2022/11/07 08:48:11;;;;;;;;;;;;;;;30.36;22.30;98151.28;6245994;22;19916;-83
2022/11/07 08:50:37;;;;;;;;;;;;;;;31.05;22.07;98159.72;6246523;23;19912;-83
2022/11/07 08:53:03;;;;;;;;;;;;;;;31.64;21.79;98162.88;6246022;23;19911;-83
2022/11/07 08:55:29;;;;;;;;;;;;;;;31.97;20.90;98158.69;6246723;23;19951;-83
2022/11/07 08:57:59;;;;;;;;;;;;;;;32.05;21.07;98157.03;6245574;22;19967;-83
2022/11/07 09:00:25;;;;;;;;;;;;;;;32.32;20.67;98156.00;6246164;22;20358;-83
2022/11/07 09:02:51;;;;;;;;;;;;;;;32.40;20.58;98162.06;6246416;22;19947;-83
2022/11/07 09:05:17;;;;;;;;;;;;;;;32.47;20.51;98159.63;6246262;23;19918;-83
2022/11/07 09:07:43;;;;;;;;;;;;;;;32.61;19.66;98166.63;6245416;23;19915;-83
2022/11/07 09:10:10;;;;;;;;;;;;;;;32.49;19.89;98157.09;6245959;23;20253;-83
2022/11/07 09:12:43;;;;;;;;;;;;;;;32.50;20.16;98169.25;6245817;22;19954;-83
2022/11/07 09:15:09;;;;;;;;;;;;;;;32.61;20.11;98175.94;6245936;22;20004;-83
2022/11/07 09:17:35;;;;;;;;;;;;;;;32.78;20.27;98172.59;6245688;23;20317;-83
2022/11/07 09:20:01;;;;;;;;;;;;;;;32.94;20.18;98180.59;6246436;23;19916;-83
2022/11/07 09:22:27;;;;;;;;;;;;;;;32.91;20.42;98179.53;6245975;23;20226;-83
2022/11/07 09:24:53;;;;;;;;;;;;;;;32.84;20.27;98176.31;6246654;22;19973;-83
2022/11/07 09:27:19;;;;;;;;;;;;;;;32.91;20.57;98185.22;6246038;23;19934;-83
2022/11/07 09:29:45;;;;;;;;;;;;;;;32.69;19.36;98184.84;6246306;23;20326;-83
2022/11/07 09:32:11;;;;;;;;;;;;;;;32.59;20.07;98178.50;6243782;23;19912;-83
2022/11/07 09:34:38;;;;;;;;;;;;;;;32.40;19.88;98187.66;6247731;23;19915;-83
2022/11/07 09:37:04;;;;;;;;;;;;;;;31.00;20.62;98190.78;6247346;22;19911;-83
2022/11/07 09:39:30;;;;;;;;;;;;;;;30.99;20.76;98192.84;6247828;23;19912;-83
2022/11/07 09:42:09;;;;;;;;;;;;;;;31.53;20.80;98186.09;6247524;22;19911;-83
2022/11/07 09:44:50;;;;;;;;;;;;;;;31.18;19.95;98188.63;6247656;22;20477;-83
2022/11/07 09:47:18;;;;;;;;;;;;;;;31.04;19.86;98197.84;6247639;23;19911;-83
2022/11/07 09:49:49;;;;;;;;;;;;;;;31.32;19.78;98193.63;6245946;23;19999;-83
2022/11/07 09:52:36;;;;;;;;;;;;;;;30.92;20.14;98198.06;6245932;23;19912;-83
2022/11/07 09:55:08;;;;;;;;;;;;;;;31.17;20.40;98197.63;6248003;22;19915;-83
2022/11/07 09:57:34;;;;;;;;;;;;;;;31.06;20.20;98195.34;6247947;23;19994;-83
2022/11/07 10:00:03;;;;;;;;;;;;;;;31.20;19.96;98194.63;6247509;22;20413;-83
2022/11/07 10:02:31;;;;;;;;;;;;;;;30.07;22.04;98201.94;6248247;22;19916;-83
2022/11/07 10:04:58;;;;;;;;;;;;;;;28.66;23.50;98197.25;6245851;23;19919;-83
2022/11/07 10:07:30;;;;;;;;;;;;;;;27.83;25.17;98197.06;6246812;22;19965;-83
2022/11/07 10:09:59;;;;;;;;;;;;;;;27.84;25.58;98200.69;6245733;22;19926;-83
2022/11/07 10:12:28;;;;;;;;;;;;;;;27.92;24.90;98194.31;6247677;23;19912;-83
2022/11/07 10:15:17;;;;;;;;;;;;;;;28.79;22.88;98194.34;6245886;23;19934;-83
2022/11/07 10:18:03;;;;;;;;;;;;;;;29.45;22.71;98190.06;6247266;22;19911;-83
2022/11/07 10:20:45;;;;;;;;;;;;;;;30.32;21.19;98189.47;6247454;22;19911;-83
2022/11/07 10:23:17;;;;;;;;;;;;;;;30.91;20.61;98191.59;6246788;22;19919;-83
2022/11/07 10:25:52;;;;;;;;;;;;;;;30.17;21.24;98194.22;6246869;23;19912;-83
2022/11/07 10:28:19;;;;;;;;;;;;;;;29.78;21.60;98185.41;6245979;23;19970;-83
2022/11/07 10:30:47;;;;;;;;;;;;;;;29.40;22.78;98185.81;6247532;22;19911;-83
2022/11/07 10:33:32;;;;;;;;;;;;;;;30.06;20.98;98186.97;6247633;22;19911;-83
2022/11/07 10:36:02;;;;;;;;;;;;;;;30.23;21.00;98201.63;6247036;23;19912;-83
2022/11/07 10:38:29;;;;;;;;;;;;;;;30.40;20.44;98191.56;6247226;22;19990;-83
2022/11/07 10:40:55;;;;;;;;;;;;;;;30.52;20.65;98198.31;6244996;22;19916;-83
2022/11/07 10:43:28;;;;;;;;;;;;;;;29.57;21.84;98197.59;6246660;22;19963;-84
2022/11/07 10:45:55;;;;;;;;;;;;;;;28.21;23.92;98198.97;6247186;22;19911;-84
2022/11/07 10:48:21;;;;;;;;;;;;;;;28.32;23.33;98194.50;6247262;22;19922;-83
2022/11/07 10:50:51;;;;;;;;;;;;;;;28.54;23.28;98191.66;6247127;23;19935;-83
2022/11/07 10:53:17;;;;;;;;;;;;;;;27.93;25.96;98187.44;6247224;22;19981;-84
2022/11/07 10:55:46;;;;;;;;;;;;;;;27.89;24.31;98192.41;6246121;22;19912;-84
2022/11/07 10:58:17;;;;;;;;;;;;;;;27.93;25.47;98200.75;6246944;22;20334;-84
2022/11/07 11:00:43;;;;;;;;;;;;;;;27.10;25.52;98201.13;6245718;23;19915;-84
2022/11/07 11:03:23;;;;;;;;;;;;;;;27.73;24.50;98198.22;6246068;23;20326;-84
2022/11/07 11:05:49;;;;;;;;;;;;;;;26.53;26.26;98207.72;6245194;23;19934;-84
2022/11/07 11:08:18;;;;;;;;;;;;;;;26.16;28.61;98214.03;6246684;23;19911;-84
2022/11/07 11:10:45;;;;;;;;;;;;;;;25.81;28.92;98217.78;6245648;23;19918;-85
2022/11/07 11:13:27;;;;;;;;;;;;;;;25.69;27.71;98213.69;6246533;22;20163;-84
2022/11/07 11:15:54;;;;;;;;;;;;;;;25.89;27.75;98217.16;6245266;22;19911;-84
2022/11/07 11:18:21;;;;;;;;;;;;;;;25.70;29.65;98208.84;6245704;23;19915;-84
2022/11/07 11:20:55;;;;;;;;;;;;;;;26.28;27.84;98210.44;6245623;22;19912;-84
2022/11/07 11:23:23;;;;;;;;;;;;;;;26.45;26.40;98217.59;6245555;22;19915;-83
2022/11/07 11:25:50;;;;;;;;;;;;;;;26.68;27.34;98206.03;6246648;22;20155;-83
2022/11/07 11:28:22;;;;;;;;;;;;;;;26.59;27.00;98214.38;6246783;22;19911;-83
2022/11/07 11:30:51;;;;;;;;;;;;;;;27.44;24.88;98213.75;6246470;22;19942;-83
2022/11/07 11:33:20;;;;;;;;;;;;;;;26.88;24.73;98210.72;6247150;22;19912;-83
2022/11/07 11:35:48;;;;;;;;;;;;;;;27.25;24.85;98210.72;6245841;22;19918;-83
2022/11/07 11:38:36;;;;;;;;;;;;;;;27.88;24.46;98209.81;6246121;22;19999;-83
2022/11/07 11:41:05;;;;;;;;;;;;;;;28.54;22.46;98197.31;6247140;22;19912;-84
2022/11/07 11:43:42;;;;;;;;;;;;;;;27.72;25.41;98209.97;6246511;23;20249;-83
2022/11/07 11:46:27;;;;;;;;;;;;;;;28.24;22.54;98198.06;6246426;22;20257;-83
2022/11/07 11:48:57;;;;;;;;;;;;;;;28.20;23.57;98198.19;6246490;22;20393;-83
2022/11/07 11:51:41;;;;;;;;;;;;;;;28.37;23.46;98201.59;6246487;22;19919;-84
2022/11/07 11:54:09;;;;;;;;;;;;;;;28.35;23.95;98196.41;6246243;23;19923;-84
2022/11/07 11:56:45;;;;;;;;;;;;;;;28.72;22.53;98201.06;6246500;22;19912;-84
2022/11/07 11:59:27;;;;;;;;;;;;;;;28.39;22.71;98199.88;6246654;22;19947;-84
2022/11/07 12:01:57;;;;;;;;;;;;;;;27.69;23.29;98205.22;6245009;23;19912;-84
2022/11/07 12:04:44;;;;;;;;;;;;;;;28.46;22.23;98202.44;6246810;23;19915;-84
2022/11/07 12:07:10;;;;;;;;;;;;;;;28.98;21.33;98206.53;6245827;22;19916;-84
2022/11/07 12:09:43;;;;;;;;;;;;;;;28.71;21.29;98207.94;6245436;23;19974;-84
2022/11/07 12:12:15;;;;;;;;;;;;;;;28.57;21.42;98204.84;6246616;22;19991;-84
2022/11/07 12:14:51;;;;;;;;;;;;;;;29.38;20.41;98204.50;6246452;23;20292;-84
2022/11/07 12:17:31;;;;;;;;;;;;;;;27.92;23.78;98199.97;6246365;22;20249;-84
2022/11/07 12:19:59;;;;;;;;;;;;;;;27.63;23.23;98204.25;6246018;22;20245;-84
2022/11/07 12:22:31;;;;;;;;;;;;;;;28.24;22.21;98206.53;6245826;23;20273;-84
2022/11/07 12:24:57;;;;;;;;;;;;;;;28.37;21.87;98201.59;6245703;23;19946;-84
2022/11/07 12:27:29;;;;;;;;;;;;;;;27.64;21.84;98200.97;6246435;23;19908;-84
2022/11/07 12:30:10;;;;;;;;;;;;;;;27.91;22.01;98198.38;6246260;23;20334;-84
2022/11/07 12:32:55;;;;;;;;;;;;;;;28.29;21.24;98201.06;6244586;23;20296;-84
2022/11/07 12:35:21;;;;;;;;;;;;;;;28.80;21.11;98198.72;6246044;23;19916;-84
2022/11/07 12:38:19;;;;;;;;;;;;;;;28.54;21.47;98197.31;6245370;23;19916;-84
2022/11/07 12:41:02;;;;;;;;;;;;;;;27.65;23.44;98191.25;6179420;22;19938;-84
2022/11/07 12:43:37;;;;;;;;;;;;;;;27.67;22.29;98197.25;6246074;22;19916;-85
2022/11/07 12:46:03;;;;;;;;;;;;;;;28.73;20.63;98199.78;6243511;23;20272;-84
2022/11/07 12:48:47;;;;;;;;;;;;;;;29.09;20.62;98195.56;6244141;23;19917;-84
2022/11/07 12:51:14;;;;;;;;;;;;;;;28.49;20.57;98210.00;6244730;23;20291;-84
2022/11/07 12:53:59;;;;;;;;;;;;;;;28.00;22.83;98209.00;6245853;22;19969;-84
2022/11/07 12:56:35;;;;;;;;;;;;;;;28.27;20.67;98209.22;6245056;23;19918;-84
2022/11/07 12:59:03;;;;;;;;;;;;;;;28.41;20.63;98202.25;6246343;22;19947;-84
2022/11/07 13:01:37;;;;;;;;;;;;;;;27.71;23.28;98212.00;6244850;23;20223;-84
2022/11/07 13:04:21;;;;;;;;;;;;;;;28.08;21.24;98212.38;6246007;22;19963;-84